Time;durP1;ratioP1;P1;durP2;ratioP2;P2;SDS_P1;SDS_P2;PMS_P1;PMS_P2;Temp;Humidity;BMP_temperature;BMP_pressure;BME280_temperature;BME280_humidity;BME280_pressure;Samples;Min_cycle;Max_cycle;Signal;HPM_P1;HPM_P2
2023/01/25 00:00:44;;;;;;;84.90;52.93;;;;;;;0.05;91.59;103612.47;5032051;28;20049;-58
2023/01/25 00:03:10;;;;;;;86.57;53.60;;;;;;;0.03;90.92;103609.00;5032668;28;20033;-57
2023/01/25 00:05:35;;;;;;;95.67;55.17;;;;;;;0.03;90.62;103614.22;5031198;28;20061;-57
2023/01/25 00:08:00;;;;;;;96.70;55.73;;;;;;;-0.04;90.17;103603.03;5029532;28;20069;-57
2023/01/25 00:10:26;;;;;;;92.93;56.37;;;;;;;-0.09;90.99;103605.72;5028532;28;20112;-57
2023/01/25 00:12:51;;;;;;;94.57;55.60;;;;;;;-0.07;91.48;103603.06;5030413;28;20034;-58
2023/01/25 00:15:16;;;;;;;94.17;55.57;;;;;;;-0.08;91.18;103596.13;5030978;28;20136;-58
2023/01/25 00:17:41;;;;;;;94.30;56.17;;;;;;;-0.09;91.11;103597.00;5029312;28;20096;-57
2023/01/25 00:20:07;;;;;;;94.27;57.20;;;;;;;-0.06;91.59;103604.78;5028475;28;20816;-57
2023/01/25 00:22:33;;;;;;;96.83;59.43;;;;;;;-0.08;91.22;103602.22;5031545;28;20025;-58
2023/01/25 00:24:58;;;;;;;96.57;55.93;;;;;;;-0.03;91.23;103599.53;5025729;28;20033;-59
2023/01/25 00:27:23;;;;;;;92.90;55.07;;;;;;;0.01;91.89;103595.13;5027187;28;20029;-57
2023/01/25 00:29:49;;;;;;;94.30;56.00;;;;;;;0.03;91.54;103594.22;5031819;28;20034;-57
2023/01/25 00:32:14;;;;;;;92.70;55.27;;;;;;;0.01;90.99;103598.59;5030576;28;20025;-57
2023/01/25 00:34:45;;;;;;;92.87;54.43;;;;;;;0.02;90.86;103592.50;5028411;28;20096;-57
2023/01/25 00:37:13;;;;;;;86.93;53.10;;;;;;;0.02;90.50;103594.22;5030206;28;20035;-58
2023/01/25 00:39:38;;;;;;;88.47;52.97;;;;;;;-0.01;90.71;103587.31;5024113;28;20144;-57
2023/01/25 00:42:04;;;;;;;87.77;53.87;;;;;;;-0.01;91.20;103592.53;5024036;28;20689;-58
2023/01/25 00:44:30;;;;;;;95.40;55.17;;;;;;;-0.04;91.30;103589.97;5023251;28;20030;-57
2023/01/25 00:46:55;;;;;;;97.87;56.73;;;;;;;0.02;91.76;103587.28;5027587;28;20049;-58
2023/01/25 00:49:26;;;;;;;100.97;57.67;;;;;;;0.01;91.89;103590.78;5022755;28;20057;-57
2023/01/25 00:51:52;;;;;;;96.23;56.23;;;;;;;0.02;91.19;103587.28;5028135;28;20044;-57
2023/01/25 00:54:18;;;;;;;103.33;57.17;;;;;;;-0.01;91.45;103587.31;5025486;28;20763;-58
2023/01/25 00:56:44;;;;;;;101.30;57.97;;;;;;;-0.01;90.94;103579.47;5023309;28;20033;-57
2023/01/25 00:59:10;;;;;;;100.27;58.33;;;;;;;-0.05;90.77;103591.72;5019751;28;20109;-57
2023/01/25 01:01:35;;;;;;;102.03;57.73;;;;;;;-0.09;91.11;103590.06;5023937;28;20105;-57
2023/01/25 01:04:00;;;;;;;104.47;58.03;;;;;;;-0.07;91.19;103583.06;5031152;28;20025;-57
2023/01/25 01:06:26;;;;;;;96.73;56.53;;;;;;;-0.04;91.30;103582.16;5032371;28;20029;-58
2023/01/25 01:08:51;;;;;;;100.37;57.47;;;;;;;-0.05;91.36;103575.22;5030197;28;20032;-58
2023/01/25 01:11:17;;;;;;;102.57;58.63;;;;;;;-0.08;91.44;103570.91;5026572;28;20079;-58
2023/01/25 01:13:43;;;;;;;104.73;58.83;;;;;;;-0.11;91.19;103570.09;5024945;28;20021;-57
2023/01/25 01:16:11;;;;;;;107.33;59.97;;;;;;;-0.15;91.85;103570.13;5022332;28;20044;-58
2023/01/25 01:18:39;;;;;;;106.87;61.47;;;;;;;-0.18;91.35;103580.63;5028384;28;20025;-57
2023/01/25 01:21:05;;;;;;;109.40;61.13;;;;;;;-0.18;91.74;103580.63;5022162;28;20631;-59
2023/01/25 01:23:31;;;;;;;110.23;61.00;;;;;;;-0.20;91.11;103577.16;5021697;28;20049;-57
2023/01/25 01:25:59;;;;;;;115.87;62.90;;;;;;;-0.28;91.20;103572.03;5027753;28;20105;-57
2023/01/25 01:28:24;;;;;;;110.00;61.10;;;;;;;-0.22;91.70;103578.06;5020355;28;20095;-57
2023/01/25 01:30:49;;;;;;;109.23;60.57;;;;;;;-0.19;91.25;103586.69;5020315;28;20037;-59
2023/01/25 01:33:14;;;;;;;110.10;60.77;;;;;;;-0.19;91.29;103578.88;5027765;28;20065;-58
2023/01/25 01:35:40;;;;;;;110.90;61.33;;;;;;;-0.24;91.70;103572.91;5019881;28;20550;-59
2023/01/25 01:38:05;;;;;;;107.73;60.73;;;;;;;-0.21;91.68;103574.56;5027227;28;20037;-58
2023/01/25 01:40:30;;;;;;;113.57;63.23;;;;;;;-0.23;91.56;103572.00;5028293;28;20380;-58
2023/01/25 01:42:58;;;;;;;112.37;62.30;;;;;;;-0.27;91.85;103575.53;5035301;28;20034;-57
2023/01/25 01:45:42;;;;;;;109.37;60.67;;;;;;;-0.20;92.05;103566.72;5029254;28;20492;-58
2023/01/25 01:48:31;;;;;;;109.97;61.27;;;;;;;-0.22;92.70;103573.72;5026076;28;20049;-57
2023/01/25 01:51:00;;;;;;;110.50;62.13;;;;;;;-0.22;92.62;103578.94;5025792;28;20041;-57
2023/01/25 01:53:28;;;;;;;108.47;59.93;;;;;;;-0.28;91.76;103574.66;5029754;28;20033;-58
2023/01/25 01:55:58;;;;;;;108.47;60.37;;;;;;;-0.23;92.21;103571.13;5024573;28;20044;-57
2023/01/25 01:58:23;;;;;;;107.77;61.53;;;;;;;-0.28;91.47;103576.41;5020304;28;20108;-58
2023/01/25 02:00:48;;;;;;;110.87;60.73;;;;;;;-0.34;91.85;103574.75;5026045;28;20037;-57
2023/01/25 02:03:15;;;;;;;111.03;61.17;;;;;;;-0.34;92.20;103571.28;5026164;28;20036;-57
2023/01/25 02:06:02;;;;;;;113.53;61.13;;;;;;;-0.32;91.96;103569.50;5031073;28;20048;-58
2023/01/25 02:08:32;;;;;;;112.80;63.23;;;;;;;-0.31;92.33;103568.63;5025207;28;20350;-57
2023/01/25 02:10:59;;;;;;;118.97;66.20;;;;;;;-0.32;90.87;103574.72;5028393;28;20037;-58
2023/01/25 02:13:26;;;;;;;112.87;62.80;;;;;;;-0.36;91.75;103567.81;5029166;28;20025;-57
2023/01/25 02:15:55;;;;;;;115.17;62.23;;;;;;;-0.34;91.92;103571.28;5029062;28;20038;-57
2023/01/25 02:18:21;;;;;;;116.97;62.63;;;;;;;-0.32;92.19;103578.22;5020648;28;20040;-58
2023/01/25 02:20:50;;;;;;;115.53;61.20;;;;;;;-0.33;91.99;103567.78;5028845;28;20031;-57
2023/01/25 02:23:42;;;;;;;110.90;60.13;;;;;;;-0.29;91.13;103572.09;5028277;28;20040;-58
2023/01/25 02:26:08;;;;;;;111.40;61.37;;;;;;;-0.39;91.68;103560.06;5021991;28;20037;-57
2023/01/25 02:28:46;;;;;;;108.50;58.90;;;;;;;-0.43;91.11;103554.88;5025888;28;20025;-58
2023/01/25 02:31:11;;;;;;;110.63;59.87;;;;;;;-0.37;91.35;103559.16;5020915;28;20434;-57
2023/01/25 02:33:36;;;;;;;115.47;61.10;;;;;;;-0.32;92.24;103551.25;5029405;28;20029;-57
2023/01/25 02:36:08;;;;;;;113.90;62.63;;;;;;;-0.36;92.01;103554.78;5028726;28;20069;-56
2023/01/25 02:38:36;;;;;;;117.00;65.20;;;;;;;-0.46;91.50;103554.94;5027131;28;20552;-58
2023/01/25 02:41:07;;;;;;;120.13;64.43;;;;;;;-0.46;92.42;103544.50;5029627;28;20040;-57
2023/01/25 02:43:34;;;;;;;116.07;63.83;;;;;;;-0.45;92.60;103541.00;5030568;28;20025;-58
2023/01/25 02:46:09;;;;;;;117.87;62.57;;;;;;;-0.41;92.81;103547.03;5025551;28;20384;-57
2023/01/25 02:48:35;;;;;;;123.73;66.50;;;;;;;-0.41;92.02;103537.50;5030986;28;20052;-57
2023/01/25 02:51:00;;;;;;;120.27;63.67;;;;;;;-0.39;91.98;103528.78;5027013;28;20034;-57
2023/01/25 02:53:26;;;;;;;120.30;64.93;;;;;;;-0.40;91.83;103533.13;5021558;28;20049;-57
2023/01/25 02:55:51;;;;;;;120.97;63.60;;;;;;;-0.39;92.08;103539.22;5023644;28;20136;-57
2023/01/25 02:58:17;;;;;;;123.90;63.90;;;;;;;-0.32;92.64;103540.84;5028627;28;20038;-57
2023/01/25 03:00:42;;;;;;;121.50;63.97;;;;;;;-0.33;91.83;103544.31;5027968;28;20113;-58
2023/01/25 03:03:07;;;;;;;124.30;65.90;;;;;;;-0.31;91.98;103529.50;5027373;28;20982;-58
2023/01/25 03:05:32;;;;;;;123.27;65.23;;;;;;;-0.29;92.18;103535.59;5019501;28;20062;-58
2023/01/25 03:07:58;;;;;;;119.13;63.17;;;;;;;-0.29;92.30;103530.38;5021768;28;20038;-57
2023/01/25 03:10:23;;;;;;;122.13;63.43;;;;;;;-0.26;92.32;103535.53;5023583;28;20044;-58
2023/01/25 03:12:48;;;;;;;121.53;63.40;;;;;;;-0.26;92.10;103539.91;5026220;28;20048;-57
2023/01/25 03:15:14;;;;;;;121.60;64.60;;;;;;;-0.26;91.96;103530.31;5020323;28;20034;-58
2023/01/25 03:17:39;;;;;;;120.67;65.53;;;;;;;-0.27;91.81;103531.19;5020095;28;20387;-58
2023/01/25 03:20:05;;;;;;;116.73;61.53;;;;;;;-0.24;91.74;103523.34;5023051;28;20032;-57
2023/01/25 03:22:30;;;;;;;122.13;64.20;;;;;;;-0.25;91.37;103521.59;5025330;28;20037;-57
2023/01/25 03:24:56;;;;;;;121.50;63.47;;;;;;;-0.26;91.29;103522.47;5022895;28;20026;-58
2023/01/25 03:27:21;;;;;;;116.33;62.13;;;;;;;-0.27;91.57;103518.16;5021479;28;20037;-59
2023/01/25 03:29:46;;;;;;;120.23;64.53;;;;;;;-0.27;91.70;103518.16;5029147;28;20037;-57
2023/01/25 03:32:12;;;;;;;118.53;61.43;;;;;;;-0.25;91.47;103508.56;5025658;28;20492;-57
2023/01/25 03:34:37;;;;;;;120.13;65.37;;;;;;;-0.32;91.59;103504.31;5021053;28;20485;-57
2023/01/25 03:37:02;;;;;;;122.27;66.40;;;;;;;-0.34;91.91;103498.28;5025512;28;20049;-58
2023/01/25 03:39:28;;;;;;;124.60;65.00;;;;;;;-0.38;91.43;103499.22;5028868;28;20032;-58
2023/01/25 03:41:53;;;;;;;125.50;65.10;;;;;;;-0.34;92.54;103493.06;5023197;28;20460;-58
2023/01/25 03:44:18;;;;;;;126.33;65.77;;;;;;;-0.35;91.85;103500.00;5027695;28;20029;-59
2023/01/25 03:46:44;;;;;;;125.90;64.23;;;;;;;-0.34;91.90;103486.09;5026629;28;20046;-58
2023/01/25 03:49:09;;;;;;;125.97;65.07;;;;;;;-0.38;91.80;103494.00;5027659;28;20048;-58
2023/01/25 03:51:34;;;;;;;123.43;64.40;;;;;;;-0.42;91.06;103499.28;5027049;28;20037;-58
2023/01/25 03:54:00;;;;;;;123.83;64.30;;;;;;;-0.42;91.76;103494.06;5013332;28;20624;-57
2023/01/25 03:56:25;;;;;;;124.53;66.33;;;;;;;-0.41;91.89;103493.16;5028450;28;20044;-59
2023/01/25 03:58:50;;;;;;;120.70;63.33;;;;;;;-0.45;91.58;103501.91;5019121;28;20057;-57
2023/01/25 04:01:16;;;;;;;124.03;64.53;;;;;;;-0.45;91.70;103499.28;5025123;28;20041;-57
2023/01/25 04:03:41;;;;;;;122.73;62.90;;;;;;;-0.37;92.25;103506.13;5024352;28;20030;-57
2023/01/25 04:06:06;;;;;;;121.93;64.40;;;;;;;-0.39;92.48;103492.28;5027926;28;20060;-57
2023/01/25 04:08:32;;;;;;;127.40;66.67;;;;;;;-0.45;91.87;103491.47;5018016;28;20029;-57
2023/01/25 04:11:08;;;;;;;125.20;65.43;;;;;;;-0.48;91.85;103490.66;5020414;28;20034;-57
2023/01/25 04:13:35;;;;;;;122.13;65.33;;;;;;;-0.49;92.71;103497.63;5020329;28;20052;-58
2023/01/25 04:16:02;;;;;;;126.83;68.00;;;;;;;-0.49;92.38;103489.78;5025778;28;20557;-56
2023/01/25 04:18:27;;;;;;;131.10;66.70;;;;;;;-0.48;92.53;103485.44;5020977;28;20041;-57
2023/01/25 04:20:54;;;;;;;124.53;64.73;;;;;;;-0.55;92.64;103487.28;5031430;28;20030;-57
2023/01/25 04:23:19;;;;;;;124.57;65.23;;;;;;;-0.53;92.49;103482.06;5028203;28;20025;-57
2023/01/25 04:26:04;;;;;;;123.63;65.13;;;;;;;-0.50;92.74;103482.88;5026734;28;20085;-57
2023/01/25 04:28:29;;;;;;;125.20;64.47;;;;;;;-0.52;93.22;103476.81;5023336;28;20033;-57
2023/01/25 04:30:56;;;;;;;126.07;65.57;;;;;;;-0.48;93.81;103473.28;5025430;28;20037;-58
2023/01/25 04:33:21;;;;;;;125.50;65.43;;;;;;;-0.52;92.79;103476.81;5033027;28;20033;-58
2023/01/25 04:35:47;;;;;;;124.90;63.27;;;;;;;-0.53;93.25;103475.09;5027795;28;20481;-58
2023/01/25 04:38:12;;;;;;;129.70;63.93;;;;;;;-0.55;92.25;103476.84;5026368;28;20029;-57
2023/01/25 04:40:38;;;;;;;124.83;62.63;;;;;;;-0.55;93.25;103479.47;5028977;28;20033;-57
2023/01/25 04:43:03;;;;;;;124.73;65.13;;;;;;;-0.54;93.16;103476.00;5030016;28;20033;-58
2023/01/25 04:45:28;;;;;;;119.43;61.67;;;;;;;-0.52;93.30;103476.81;5028396;28;20030;-57
2023/01/25 04:47:56;;;;;;;125.27;63.50;;;;;;;-0.51;93.40;103478.53;5029137;28;20045;-57
2023/01/25 04:50:21;;;;;;;121.27;62.10;;;;;;;-0.50;92.38;103475.03;5032932;28;20060;-57
2023/01/25 04:52:46;;;;;;;113.57;59.33;;;;;;;-0.61;91.48;103469.13;5029582;28;20068;-57
2023/01/25 04:55:12;;;;;;;118.67;60.80;;;;;;;-0.60;91.54;103473.47;5029333;28;20171;-58
2023/01/25 04:57:37;;;;;;;118.90;60.57;;;;;;;-0.60;91.71;103468.28;5029042;28;20458;-58
2023/01/25 05:00:03;;;;;;;119.57;61.33;;;;;;;-0.61;92.14;103461.31;5030276;28;20048;-59
2023/01/25 05:02:28;;;;;;;118.20;59.70;;;;;;;-0.58;91.71;103466.50;5023048;28;20625;-57
2023/01/25 05:04:53;;;;;;;119.10;60.03;;;;;;;-0.59;91.90;103460.41;5029273;28;20563;-58
2023/01/25 05:07:19;;;;;;;117.27;60.27;;;;;;;-0.59;92.14;103456.94;5030215;28;20108;-57
2023/01/25 05:09:44;;;;;;;119.87;60.97;;;;;;;-0.59;91.69;103460.41;5028731;28;20026;-58
2023/01/25 05:12:12;;;;;;;106.07;56.17;;;;;;;-0.59;91.56;103449.13;5029317;28;20127;-58
2023/01/25 05:14:38;;;;;;;117.67;59.77;;;;;;;-0.64;91.04;103462.22;5020614;28;20037;-58
2023/01/25 05:17:06;;;;;;;111.67;57.43;;;;;;;-0.64;91.16;103453.56;5028890;28;20033;-58
2023/01/25 05:19:32;;;;;;;110.23;58.20;;;;;;;-0.68;90.36;103450.97;5033100;28;20624;-57
2023/01/25 05:21:57;;;;;;;110.80;58.00;;;;;;;-0.76;91.05;103447.63;5032492;28;20160;-57
2023/01/25 05:24:31;;;;;;;119.47;60.30;;;;;;;-0.84;91.18;103449.50;5029475;28;20489;-57
2023/01/25 05:26:59;;;;;;;112.60;59.47;;;;;;;-0.90;90.93;103449.59;5025094;28;20042;-58
2023/01/25 05:29:34;;;;;;;112.50;63.10;;;;;;;-0.84;91.97;103444.28;5027134;28;20017;-57
2023/01/25 05:32:00;;;;;;;114.70;58.77;;;;;;;-0.76;92.07;103452.84;5030506;28;20477;-58
2023/01/25 05:34:26;;;;;;;113.53;58.30;;;;;;;-0.72;92.35;103446.72;5028412;28;20040;-57
2023/01/25 05:36:51;;;;;;;105.77;52.90;;;;;;;-0.62;91.37;103443.94;5030708;28;20049;-57
2023/01/25 05:39:17;;;;;;;110.07;56.10;;;;;;;-0.67;91.63;103436.22;5032553;28;20048;-58
2023/01/25 05:41:42;;;;;;;111.40;56.80;;;;;;;-0.68;91.52;103443.16;5027191;28;20022;-58
2023/01/25 05:44:08;;;;;;;110.17;54.90;;;;;;;-0.62;91.25;103441.34;5027341;28;20029;-57
2023/01/25 05:46:33;;;;;;;109.27;56.57;;;;;;;-0.70;91.88;103437.13;5029015;28;20041;-57
2023/01/25 05:48:58;;;;;;;108.27;55.57;;;;;;;-0.66;91.80;103442.28;5019816;28;20405;-58
2023/01/25 05:51:23;;;;;;;109.20;55.03;;;;;;;-0.68;92.11;103440.53;5025376;28;20077;-57
2023/01/25 05:53:49;;;;;;;114.40;57.07;;;;;;;-0.70;91.82;103437.13;5027414;28;20037;-57
2023/01/25 05:56:14;;;;;;;109.33;55.90;;;;;;;-0.68;92.26;103440.53;5030023;28;20037;-57
2023/01/25 05:58:39;;;;;;;108.50;56.00;;;;;;;-0.66;92.06;103442.28;5030781;28;20477;-56
2023/01/25 06:01:06;;;;;;;118.50;59.80;;;;;;;-0.64;91.80;103430.09;5029097;28;20469;-58
2023/01/25 06:03:33;;;;;;;111.10;56.10;;;;;;;-0.65;91.88;103429.22;5026482;28;20143;-57
2023/01/25 06:06:03;;;;;;;110.63;56.07;;;;;;;-0.68;91.80;103432.72;5023795;28;20033;-57
2023/01/25 06:08:30;;;;;;;109.80;55.77;;;;;;;-0.68;92.27;103429.28;5025475;28;20029;-58
2023/01/25 06:10:56;;;;;;;108.27;56.37;;;;;;;-0.70;nan;103436.25;5025702;28;20057;-56
2023/01/25 06:13:21;;;;;;;110.17;56.43;;;;;;;-0.70;92.07;103437.13;5024890;28;20477;-57
2023/01/25 06:15:54;;;;;;;112.13;57.40;;;;;;;-0.72;92.46;103443.22;5020501;28;20072;-57
2023/01/25 06:18:20;;;;;;;107.35;54.20;;;;;;;-0.69;91.72;103436.22;5021402;28;20041;-57
2023/01/25 06:20:46;;;;;;;112.27;55.93;;;;;;;-0.72;91.88;103438.91;5025215;28;20025;-56
2023/01/25 06:23:11;;;;;;;112.13;57.10;;;;;;;-0.74;92.13;103439.81;5028383;28;20121;-57
2023/01/25 06:25:36;;;;;;;112.63;57.87;;;;;;;-0.72;92.31;103435.41;5021450;28;20017;-58
2023/01/25 06:28:01;;;;;;;110.80;56.70;;;;;;;-0.72;92.18;103438.91;5019639;28;20041;-56
2023/01/25 06:30:27;;;;;;;105.53;54.33;;;;;;;-0.70;91.44;103434.50;5021712;28;20048;-57
2023/01/25 06:32:52;;;;;;;105.27;50.87;;;;;;;-0.68;90.62;103430.13;5023192;28;20152;-57
2023/01/25 06:35:18;;;;;;;108.70;54.80;;;;;;;-0.74;90.75;103440.66;5024004;28;20034;-56
2023/01/25 06:37:43;;;;;;;109.70;56.17;;;;;;;-0.80;91.63;103437.28;5019991;28;20030;-57
2023/01/25 06:40:09;;;;;;;111.70;58.20;;;;;;;-0.83;92.10;103440.78;5021835;28;20373;-57
2023/01/25 06:42:35;;;;;;;108.23;54.00;;;;;;;-0.80;91.51;103440.72;5021735;28;20032;-57
2023/01/25 06:45:00;;;;;;;112.70;56.67;;;;;;;-0.87;90.94;103433.91;5020464;28;20032;-59
2023/01/25 06:47:25;;;;;;;112.50;56.43;;;;;;;-0.90;91.91;103428.75;5026088;28;20048;-57
2023/01/25 06:49:51;;;;;;;113.43;57.67;;;;;;;-0.89;91.90;103435.69;5028242;28;20030;-56
2023/01/25 06:52:16;;;;;;;111.83;55.73;;;;;;;-0.91;92.23;103432.22;5014032;28;20026;-57
2023/01/25 06:54:41;;;;;;;110.00;56.23;;;;;;;-0.87;91.90;103428.69;5028106;28;20025;-57
2023/01/25 06:57:09;;;;;;;110.23;55.97;;;;;;;-0.83;92.41;103426.00;5023373;28;20792;-56
2023/01/25 06:59:34;;;;;;;114.67;57.27;;;;;;;-0.80;92.24;103430.31;5022107;28;20033;-57
2023/01/25 07:02:00;;;;;;;106.37;54.17;;;;;;;-0.77;92.08;103430.28;5020984;28;20037;-57
2023/01/25 07:04:25;;;;;;;106.47;54.87;;;;;;;-0.75;92.26;103419.84;5019277;28;20029;-58
2023/01/25 07:06:50;;;;;;;104.80;54.93;;;;;;;-0.73;92.31;103415.47;5019138;28;20581;-57
2023/01/25 07:09:16;;;;;;;107.43;55.97;;;;;;;-0.73;92.83;103421.50;5023783;28;20029;-57
2023/01/25 07:11:42;;;;;;;104.13;52.73;;;;;;;-0.71;92.03;103419.75;5029687;28;20076;-56
2023/01/25 07:14:07;;;;;;;105.97;54.00;;;;;;;-0.68;92.05;103424.06;5029693;28;20041;-58
2023/01/25 07:16:35;;;;;;;100.80;53.63;;;;;;;-0.69;92.76;103427.56;5027915;28;20047;-57
2023/01/25 07:19:09;;;;;;;107.50;55.73;;;;;;;-0.71;93.18;103427.59;5020095;28;20447;-57
2023/01/25 07:21:34;;;;;;;105.63;54.83;;;;;;;-0.74;92.12;103435.44;5027262;28;20510;-56
2023/01/25 07:24:01;;;;;;;104.00;54.00;;;;;;;-0.77;92.00;103434.63;5026877;28;20037;-57
2023/01/25 07:26:27;;;;;;;105.97;54.80;;;;;;;-0.77;92.64;103434.63;5029353;28;20100;-58
2023/01/25 07:28:54;;;;;;;106.00;53.83;;;;;;;-0.78;92.47;103433.78;5030672;28;20060;-57
2023/01/25 07:31:20;;;;;;;105.93;54.30;;;;;;;-0.77;92.41;103421.59;5023530;28;20448;-57
2023/01/25 07:33:50;;;;;;;100.13;52.53;;;;;;;-0.75;92.61;103422.44;5030419;28;20056;-57
2023/01/25 07:36:16;;;;;;;104.13;53.33;;;;;;;-0.76;92.34;103415.50;5025896;28;20072;-56
2023/01/25 07:38:41;;;;;;;97.07;51.90;;;;;;;-0.76;92.62;103410.28;5029668;28;20472;-57
2023/01/25 07:41:07;;;;;;;102.00;53.00;;;;;;;-0.76;92.56;103411.16;5024479;28;20505;-57
2023/01/25 07:43:32;;;;;;;99.73;52.27;;;;;;;-0.73;92.46;103410.25;5029926;28;20108;-56
2023/01/25 07:46:06;;;;;;;103.87;53.57;;;;;;;-0.74;92.01;103405.94;5026112;28;20022;-57
2023/01/25 07:48:32;;;;;;;106.00;52.00;;;;;;;-0.74;92.60;103411.13;5019603;28;20049;-57
2023/01/25 07:51:21;;;;;;;107.63;53.90;;;;;;;-0.72;92.48;103406.75;5019014;28;20116;-57
2023/01/25 07:53:49;;;;;;;107.80;55.87;;;;;;;-0.84;92.90;103405.22;5027044;28;20071;-57
2023/01/25 07:56:14;;;;;;;108.87;54.57;;;;;;;-0.85;92.83;103416.50;5026786;28;20033;-57
2023/01/25 07:58:39;;;;;;;102.63;53.00;;;;;;;-0.83;93.02;103409.53;5032302;28;20036;-57
2023/01/25 08:01:06;;;;;;;106.23;54.23;;;;;;;-0.85;92.60;103416.50;5020485;28;20056;-57
2023/01/25 08:03:32;;;;;;;107.50;53.10;;;;;;;-0.88;92.33;103417.38;5033393;28;20489;-57
2023/01/25 08:05:57;;;;;;;106.93;54.13;;;;;;;-0.96;92.18;103414.94;5033232;28;20036;-56
2023/01/25 08:08:22;;;;;;;109.97;55.37;;;;;;;-1.01;91.91;103414.13;5032985;28;20160;-56
2023/01/25 08:10:48;;;;;;;103.80;53.13;;;;;;;-0.98;92.43;103408.84;5021897;28;20037;-57
2023/01/25 08:13:13;;;;;;;104.20;53.00;;;;;;;-0.95;92.59;103405.34;5026871;28;20600;-56
2023/01/25 08:15:39;;;;;;;114.93;54.73;;;;;;;-0.90;91.42;103407.91;5032926;28;20124;-57
2023/01/25 08:18:04;;;;;;;107.40;52.87;;;;;;;-0.97;92.41;103408.00;5022377;28;20025;-57
2023/01/25 08:20:29;;;;;;;104.63;52.60;;;;;;;-1.03;92.37;103408.06;5031554;28;20124;-57
2023/01/25 08:22:54;;;;;;;106.17;53.13;;;;;;;-0.91;90.05;103411.38;5029499;28;20693;-57
2023/01/25 08:25:20;;;;;;;103.00;52.40;;;;;;;-1.16;91.50;103407.38;5014839;28;20038;-58
2023/01/25 08:27:45;;;;;;;103.50;52.60;;;;;;;-1.17;92.29;103402.19;5018251;28;20032;-56
2023/01/25 08:30:11;;;;;;;106.77;52.70;;;;;;;-1.15;92.79;103397.81;5032018;28;20451;-57
2023/01/25 08:32:37;;;;;;;99.03;50.83;;;;;;;-1.08;92.98;103394.25;5025940;28;20101;-57
2023/01/25 08:35:03;;;;;;;103.47;52.23;;;;;;;-1.09;93.18;103392.50;5032514;28;20027;-57
2023/01/25 08:37:28;;;;;;;105.90;53.67;;;;;;;-1.02;92.66;103399.38;5031473;28;20564;-58
2023/01/25 08:39:56;;;;;;;101.83;51.17;;;;;;;-0.97;92.50;103397.56;5032387;28;20592;-57
2023/01/25 08:42:23;;;;;;;106.70;52.57;;;;;;;-0.98;92.68;103393.22;5031988;28;20033;-57
2023/01/25 08:44:48;;;;;;;105.97;52.33;;;;;;;-0.93;92.89;103393.19;5026556;28;20028;-57
2023/01/25 08:47:13;;;;;;;104.30;52.37;;;;;;;-0.92;93.03;103388.81;5024915;28;20049;-57
2023/01/25 08:49:38;;;;;;;102.53;51.70;;;;;;;-0.88;92.53;103395.72;5031682;28;20061;-58
2023/01/25 08:52:04;;;;;;;102.43;52.33;;;;;;;-0.91;92.31;103403.56;5031331;28;20052;-57
2023/01/25 08:54:29;;;;;;;102.90;53.30;;;;;;;-0.95;92.04;103401.00;5032530;28;20041;-57
2023/01/25 08:56:55;;;;;;;102.63;53.63;;;;;;;-0.95;92.24;103395.81;5029868;28;20064;-58
2023/01/25 08:59:20;;;;;;;103.17;51.00;;;;;;;-0.95;92.73;103398.41;5030427;28;20056;-57
2023/01/25 09:01:45;;;;;;;104.63;52.47;;;;;;;-0.95;92.69;103389.72;5033333;28;20399;-57
2023/01/25 09:04:10;;;;;;;104.17;52.13;;;;;;;-0.99;92.38;103383.69;5028015;28;20037;-59
2023/01/25 09:06:36;;;;;;;105.67;50.43;;;;;;;-0.91;92.21;103380.09;5029079;28;20030;-57
2023/01/25 09:09:03;;;;;;;109.30;54.20;;;;;;;-0.97;91.92;103376.75;5032815;28;20037;-57
2023/01/25 09:11:28;;;;;;;106.83;52.07;;;;;;;-0.93;93.04;103376.69;5019786;28;20135;-58
2023/01/25 09:13:54;;;;;;;103.10;50.87;;;;;;;-0.98;92.92;103374.16;5031469;28;20651;-57
2023/01/25 09:16:29;;;;;;;105.27;50.23;;;;;;;-0.87;91.59;103372.25;5031347;28;20033;-58
2023/01/25 09:19:00;;;;;;;110.40;53.47;;;;;;;-1.04;92.40;103375.09;5031980;28;20041;-57
2023/01/25 09:21:26;;;;;;;110.93;54.17;;;;;;;-1.05;92.75;103372.53;5031351;28;20056;-57
2023/01/25 09:23:52;;;;;;;110.27;54.40;;;;;;;-1.06;92.89;103365.56;5032814;28;20049;-57
2023/01/25 09:26:18;;;;;;;110.83;54.63;;;;;;;-1.06;92.64;103366.44;5030014;28;20029;-57
2023/01/25 09:28:48;;;;;;;106.60;53.07;;;;;;;-1.06;92.18;103366.44;5031842;28;20044;-60
2023/01/25 09:31:14;;;;;;;106.10;53.53;;;;;;;-1.05;92.61;103362.94;5021138;28;20030;-59
2023/01/25 09:33:40;;;;;;;111.87;53.43;;;;;;;-1.00;92.51;103370.69;5029594;28;20056;-58
2023/01/25 09:36:06;;;;;;;104.50;53.67;;;;;;;-1.02;92.59;103372.47;5029836;28;20034;-58
2023/01/25 09:38:32;;;;;;;106.83;52.57;;;;;;;-1.00;92.71;103366.34;5030806;28;20033;-57
2023/01/25 09:41:03;;;;;;;106.53;52.83;;;;;;;-0.97;92.25;103363.72;5026507;28;20049;-60
2023/01/25 09:43:40;;;;;;;104.93;52.07;;;;;;;-1.05;92.65;103368.16;5023379;28;20151;-60
2023/01/25 09:46:30;;;;;;;110.37;53.53;;;;;;;-1.00;93.39;103366.34;5030639;28;20534;-60
2023/01/25 09:49:29;;;;;;;109.90;53.80;;;;;;;-0.92;94.18;103362.75;5025185;28;20057;-60
2023/01/25 09:52:15;;;;;;;117.87;55.17;;;;;;;-0.88;93.33;103359.22;5031244;28;20100;-59
2023/01/25 09:54:44;;;;;;;106.93;52.30;;;;;;;-0.91;92.95;103364.47;5021962;28;20073;-60
2023/01/25 09:57:18;;;;;;;108.23;53.27;;;;;;;-0.90;92.76;103363.63;5027666;28;20350;-59
2023/01/25 09:59:47;;;;;;;112.80;54.90;;;;;;;-1.07;92.73;103349.09;5029575;28;20042;-61
2023/01/25 10:02:26;;;;;;;119.30;55.77;;;;;;;-0.93;93.20;103361.03;5030496;28;20025;-60
2023/01/25 10:04:56;;;;;;;112.83;54.77;;;;;;;-1.07;93.07;103354.31;5025009;28;20033;-59
2023/01/25 10:07:49;;;;;;;115.90;50.37;;;;;;;-0.88;91.42;103369.66;5023665;28;20033;-59
2023/01/25 10:10:19;;;;;;;117.70;54.83;;;;;;;-1.05;92.26;103357.75;5023859;28;20447;-59
2023/01/25 10:12:44;;;;;;;121.20;56.50;;;;;;;-1.06;92.65;103356.03;5022042;28;20036;-59
2023/01/25 10:15:18;;;;;;;123.77;57.27;;;;;;;-1.18;93.31;103356.22;5028723;28;20041;-61
2023/01/25 10:17:45;;;;;;;122.00;55.57;;;;;;;-1.26;93.14;103346.75;5029654;28;20377;-59
2023/01/25 10:20:40;;;;;;;116.77;52.33;;;;;;;-1.17;93.42;103347.50;5028220;28;20354;-59
2023/01/25 10:23:40;;;;;;;121.57;56.13;;;;;;;-1.15;93.40;103338.78;5029584;28;20025;-59
2023/01/25 10:26:28;;;;;;;116.03;52.40;;;;;;;-1.08;92.73;103347.38;5019977;28;20022;-59
2023/01/25 10:29:15;;;;;;;115.47;53.03;;;;;;;-1.08;93.67;103347.38;5026114;28;20063;-60
2023/01/25 10:31:49;;;;;;;118.70;55.43;;;;;;;-1.25;93.55;103338.06;5029578;28;20033;-59
2023/01/25 10:34:19;;;;;;;122.13;55.87;;;;;;;-1.24;93.08;103336.31;5023575;28;20049;-59
2023/01/25 10:36:52;;;;;;;120.40;54.97;;;;;;;-1.24;93.40;103336.31;5026452;28;20416;-59
2023/01/25 10:39:18;;;;;;;114.13;52.45;;;;;;;-1.27;93.57;103332.03;5025999;28;20480;-60
2023/01/25 10:41:50;;;;;;;122.13;56.57;;;;;;;-1.35;93.26;103323.44;5023777;28;20021;-60
2023/01/25 10:44:20;;;;;;;114.67;55.17;;;;;;;-1.38;93.63;103313.09;5022249;28;20026;-61
2023/01/25 10:47:14;;;;;;;113.70;53.30;;;;;;;-1.28;94.31;103309.47;5026727;28;20060;-59
2023/01/25 10:49:47;;;;;;;116.60;54.73;;;;;;;-1.20;93.63;103295.50;5018122;28;20491;-60
2023/01/25 10:52:14;;;;;;;114.93;54.25;;;;;;;-1.19;94.00;103289.41;5031355;28;20116;-59
2023/01/25 10:54:40;;;;;;;117.00;54.70;;;;;;;-1.12;94.16;103278.00;5019444;28;20030;-57
2023/01/25 10:57:08;;;;;;;118.80;54.63;;;;;;;-1.06;94.06;103290.03;5024989;28;20028;-57
2023/01/25 10:59:35;;;;;;;113.33;53.83;;;;;;;-1.05;93.02;103278.75;5027660;28;20488;-57
2023/01/25 11:02:46;;;;;;;113.47;54.63;;;;;;;-0.91;93.50;103275.91;5026998;28;20033;-57
2023/01/25 11:05:17;;;;;;;106.43;48.63;;;;;;;-0.85;91.44;103275.81;5044024;28;20033;-58